sensor_id;sensor_type;location;lat;lon;timestamp;pressure;altitude;pressure_sealevel;temperature;humidity
5679;BME280;2862;52.560;13.566;2023-01-27T00:09:52;101299.66;;;0.37;100.00
5679;BME280;2862;52.560;13.566;2023-01-27T00:19:55;101303.72;;;0.47;100.00
5679;BME280;2862;52.560;13.566;2023-01-27T00:29:59;101300.91;;;0.25;100.00
5679;BME280;2862;52.560;13.566;2023-01-27T00:40:05;101304.13;;;0.35;100.00
5679;BME280;2862;52.560;13.566;2023-01-27T00:50:10;101298.81;;;0.37;100.00
5679;BME280;2862;52.560;13.566;2023-01-27T01:00:15;101310.44;;;0.30;100.00
5679;BME280;2862;52.560;13.566;2023-01-27T01:10:19;101322.19;;;0.18;100.00
5679;BME280;2862;52.560;13.566;2023-01-27T01:20:23;101321.97;;;0.25;100.00
5679;BME280;2862;52.560;13.566;2023-01-27T01:30:28;101329.19;;;0.19;100.00
5679;BME280;2862;52.560;13.566;2023-01-27T01:40:31;101330.94;;;0.18;100.00
5679;BME280;2862;52.560;13.566;2023-01-27T01:50:38;101335.47;;;0.13;100.00
5679;BME280;2862;52.560;13.566;2023-01-27T02:00:41;101343.06;;;0.22;100.00
5679;BME280;2862;52.560;13.566;2023-01-27T02:10:46;101339.59;;;0.22;100.00
5679;BME280;2862;52.560;13.566;2023-01-27T02:20:51;101331.28;;;0.36;100.00
5679;BME280;2862;52.560;13.566;2023-01-27T02:30:56;101326.28;;;0.55;100.00
5679;BME280;2862;52.560;13.566;2023-01-27T02:41:03;101328.66;;;0.62;100.00
5679;BME280;2862;52.560;13.566;2023-01-27T02:51:10;101333.06;;;0.62;100.00
5679;BME280;2862;52.560;13.566;2023-01-27T03:01:16;101349.63;;;0.65;100.00
5679;BME280;2862;52.560;13.566;2023-01-27T03:11:21;101362.75;;;0.67;100.00
5679;BME280;2862;52.560;13.566;2023-01-27T03:21:38;101350.28;;;0.72;100.00
5679;BME280;2862;52.560;13.566;2023-01-27T03:31:43;101349.50;;;0.70;100.00
5679;BME280;2862;52.560;13.566;2023-01-27T03:41:47;101350.09;;;0.78;100.00
5679;BME280;2862;52.560;13.566;2023-01-27T03:52:11;101361.59;;;0.75;100.00
5679;BME280;2862;52.560;13.566;2023-01-27T04:02:14;101352.13;;;0.70;100.00
5679;BME280;2862;52.560;13.566;2023-01-27T04:12:36;101354.34;;;0.82;100.00
5679;BME280;2862;52.560;13.566;2023-01-27T04:22:40;101352.94;;;0.98;100.00
5679;BME280;2862;52.560;13.566;2023-01-27T04:32:44;101363.97;;;1.10;100.00
5679;BME280;2862;52.560;13.566;2023-01-27T04:42:47;101364.78;;;1.12;100.00
5679;BME280;2862;52.560;13.566;2023-01-27T04:52:51;101362.69;;;1.21;100.00
5679;BME280;2862;52.560;13.566;2023-01-27T05:02:55;101375.53;;;1.30;100.00
5679;BME280;2862;52.560;13.566;2023-01-27T05:12:59;101390.13;;;1.14;100.00
5679;BME280;2862;52.560;13.566;2023-01-27T05:23:03;101393.22;;;1.27;100.00
5679;BME280;2862;52.560;13.566;2023-01-27T05:33:25;101399.59;;;1.20;100.00
5679;BME280;2862;52.560;13.566;2023-01-27T05:43:29;101407.00;;;1.09;100.00
5679;BME280;2862;52.560;13.566;2023-01-27T05:53:34;101409.47;;;1.13;100.00
5679;BME280;2862;52.560;13.566;2023-01-27T06:03:37;101408.53;;;0.89;100.00
5679;BME280;2862;52.560;13.566;2023-01-27T06:13:42;101404.78;;;0.96;100.00
5679;BME280;2862;52.560;13.566;2023-01-27T06:23:45;101411.47;;;1.06;100.00
5679;BME280;2862;52.560;13.566;2023-01-27T06:33:50;101411.38;;;1.10;100.00
5679;BME280;2862;52.560;13.566;2023-01-27T06:43:53;101429.13;;;1.29;100.00
5679;BME280;2862;52.560;13.566;2023-01-27T06:53:58;101428.19;;;1.82;100.00
5679;BME280;2862;52.560;13.566;2023-01-27T07:04:01;101433.47;;;1.57;100.00
5679;BME280;2862;52.560;13.566;2023-01-27T07:14:05;101446.22;;;1.44;100.00
5679;BME280;2862;52.560;13.566;2023-01-27T07:24:11;101451.78;;;1.35;100.00
5679;BME280;2862;52.560;13.566;2023-01-27T07:34:15;101467.53;;;1.37;100.00
5679;BME280;2862;52.560;13.566;2023-01-27T07:44:18;101470.72;;;1.46;100.00
5679;BME280;2862;52.560;13.566;2023-01-27T07:54:23;101470.38;;;1.57;100.00
5679;BME280;2862;52.560;13.566;2023-01-27T08:04:26;101465.69;;;2.15;100.00
5679;BME280;2862;52.560;13.566;2023-01-27T08:14:32;101470.63;;;2.48;100.00
5679;BME280;2862;52.560;13.566;2023-01-27T08:24:34;101485.31;;;2.06;100.00
5679;BME280;2862;52.560;13.566;2023-01-27T08:34:39;101493.59;;;1.97;100.00
5679;BME280;2862;52.560;13.566;2023-01-27T08:45:00;101502.03;;;2.07;100.00
5679;BME280;2862;52.560;13.566;2023-01-27T08:55:06;101508.53;;;2.22;100.00
5679;BME280;2862;52.560;13.566;2023-01-27T09:05:09;101516.22;;;2.28;100.00
5679;BME280;2862;52.560;13.566;2023-01-27T09:15:13;101510.97;;;2.51;100.00
5679;BME280;2862;52.560;13.566;2023-01-27T09:25:16;101533.16;;;2.46;100.00
5679;BME280;2862;52.560;13.566;2023-01-27T09:35:20;101532.44;;;2.65;100.00
5679;BME280;2862;52.560;13.566;2023-01-27T09:45:38;101554.66;;;2.60;100.00
5679;BME280;2862;52.560;13.566;2023-01-27T09:55:52;101544.88;;;2.62;100.00
5679;BME280;2862;52.560;13.566;2023-01-27T10:06:24;101564.22;;;2.62;100.00
5679;BME280;2862;52.560;13.566;2023-01-27T10:16:47;101551.53;;;2.72;100.00
5679;BME280;2862;52.560;13.566;2023-01-27T10:26:58;101566.94;;;2.84;100.00
5679;BME280;2862;52.560;13.566;2023-01-27T10:37:17;101569.72;;;2.80;100.00
5679;BME280;2862;52.560;13.566;2023-01-27T10:47:35;101562.28;;;2.91;100.00
5679;BME280;2862;52.560;13.566;2023-01-27T10:57:45;101571.56;;;3.01;100.00
5679;BME280;2862;52.560;13.566;2023-01-27T11:07:53;101579.72;;;2.95;100.00
5679;BME280;2862;52.560;13.566;2023-01-27T11:18:03;101573.66;;;3.15;100.00
5679;BME280;2862;52.560;13.566;2023-01-27T11:28:19;101581.84;;;3.09;100.00
5679;BME280;2862;52.560;13.566;2023-01-27T11:38:27;101558.63;;;3.17;100.00
5679;BME280;2862;52.560;13.566;2023-01-27T11:48:35;101558.25;;;3.26;100.00
5679;BME280;2862;52.560;13.566;2023-01-27T11:58:48;101555.69;;;3.46;100.00
5679;BME280;2862;52.560;13.566;2023-01-27T12:08:54;101561.75;;;3.27;100.00
5679;BME280;2862;52.560;13.566;2023-01-27T12:19:01;101563.06;;;3.16;100.00
5679;BME280;2862;52.560;13.566;2023-01-27T12:29:11;101562.75;;;3.24;100.00
5679;BME280;2862;52.560;13.566;2023-01-27T12:39:40;101557.53;;;3.23;100.00
5679;BME280;2862;52.560;13.566;2023-01-27T12:49:44;101551.31;;;3.24;100.00
5679;BME280;2862;52.560;13.566;2023-01-27T12:59:50;101562.47;;;3.08;100.00
5679;BME280;2862;52.560;13.566;2023-01-27T13:09:56;101569.31;;;3.14;100.00
5679;BME280;2862;52.560;13.566;2023-01-27T13:20:12;101573.47;;;2.98;100.00
5679;BME280;2862;52.560;13.566;2023-01-27T13:30:21;101561.06;;;3.00;100.00
5679;BME280;2862;52.560;13.566;2023-01-27T13:40:33;101571.25;;;2.87;100.00
5679;BME280;2862;52.560;13.566;2023-01-27T13:50:44;101580.53;;;2.97;100.00
5679;BME280;2862;52.560;13.566;2023-01-27T14:00:58;101582.75;;;3.08;100.00
5679;BME280;2862;52.560;13.566;2023-01-27T14:11:11;101589.06;;;3.04;99.87
5679;BME280;2862;52.560;13.566;2023-01-27T14:21:23;101598.09;;;2.98;99.31
5679;BME280;2862;52.560;13.566;2023-01-27T14:31:49;101605.63;;;3.09;99.21
5679;BME280;2862;52.560;13.566;2023-01-27T14:42:00;101606.16;;;2.95;98.55
5679;BME280;2862;52.560;13.566;2023-01-27T14:52:18;101616.38;;;3.04;97.63
5679;BME280;2862;52.560;13.566;2023-01-27T15:02:42;101626.13;;;3.02;96.57
5679;BME280;2862;52.560;13.566;2023-01-27T15:23:37;101636.97;;;2.95;95.64
5679;BME280;2862;52.560;13.566;2023-01-27T15:33:52;101644.44;;;3.07;95.96
5679;BME280;2862;52.560;13.566;2023-01-27T15:44:10;101657.31;;;2.92;95.69
5679;BME280;2862;52.560;13.566;2023-01-27T15:54:19;101673.38;;;2.86;96.20
5679;BME280;2862;52.560;13.566;2023-01-27T16:04:28;101680.34;;;2.89;95.82
5679;BME280;2862;52.560;13.566;2023-01-27T16:14:43;101683.06;;;2.86;94.98
5679;BME280;2862;52.560;13.566;2023-01-27T16:24:51;101698.91;;;2.86;96.27
5679;BME280;2862;52.560;13.566;2023-01-27T16:35:01;101697.03;;;2.89;95.70
5679;BME280;2862;52.560;13.566;2023-01-27T16:45:15;101705.06;;;2.86;96.39
5679;BME280;2862;52.560;13.566;2023-01-27T16:55:21;101714.75;;;2.86;95.88
5679;BME280;2862;52.560;13.566;2023-01-27T17:05:25;101719.19;;;2.85;95.43
5679;BME280;2862;52.560;13.566;2023-01-27T17:15:33;101715.81;;;2.82;95.14
5679;BME280;2862;52.560;13.566;2023-01-27T17:25:38;101721.25;;;2.77;94.93
5679;BME280;2862;52.560;13.566;2023-01-27T17:35:42;101735.94;;;2.59;94.35
5679;BME280;2862;52.560;13.566;2023-01-27T17:46:07;101734.72;;;2.43;93.19
5679;BME280;2862;52.560;13.566;2023-01-27T17:56:17;101736.75;;;2.35;92.93
5679;BME280;2862;52.560;13.566;2023-01-27T18:06:25;101750.72;;;2.38;91.45
5679;BME280;2862;52.560;13.566;2023-01-27T18:16:33;101756.91;;;2.37;92.86
5679;BME280;2862;52.560;13.566;2023-01-27T18:26:40;101768.72;;;2.26;93.18
5679;BME280;2862;52.560;13.566;2023-01-27T18:36:50;101772.81;;;2.34;91.85
5679;BME280;2862;52.560;13.566;2023-01-27T18:47:04;101787.09;;;2.29;90.92
5679;BME280;2862;52.560;13.566;2023-01-27T18:57:16;101794.78;;;2.36;89.59
5679;BME280;2862;52.560;13.566;2023-01-27T19:07:21;101794.31;;;2.24;89.20
5679;BME280;2862;52.560;13.566;2023-01-27T19:17:24;101808.91;;;2.06;89.71
5679;BME280;2862;52.560;13.566;2023-01-27T19:27:29;101802.34;;;1.91;88.92
5679;BME280;2862;52.560;13.566;2023-01-27T19:37:32;101816.44;;;1.90;88.35
5679;BME280;2862;52.560;13.566;2023-01-27T19:47:41;101817.50;;;1.83;87.43
5679;BME280;2862;52.560;13.566;2023-01-27T19:57:49;101823.19;;;1.69;87.88
5679;BME280;2862;52.560;13.566;2023-01-27T20:07:53;101826.13;;;1.58;88.20
5679;BME280;2862;52.560;13.566;2023-01-27T20:17:57;101833.00;;;1.33;88.26
5679;BME280;2862;52.560;13.566;2023-01-27T20:28:02;101825.84;;;1.38;88.01
5679;BME280;2862;52.560;13.566;2023-01-27T20:38:05;101840.88;;;1.00;88.84
5679;BME280;2862;52.560;13.566;2023-01-27T20:48:10;101849.31;;;0.79;87.88
5679;BME280;2862;52.560;13.566;2023-01-27T20:58:16;101851.41;;;0.65;88.38
5679;BME280;2862;52.560;13.566;2023-01-27T21:08:21;101865.66;;;0.56;88.43
5679;BME280;2862;52.560;13.566;2023-01-27T21:18:25;101862.44;;;0.43;88.50
5679;BME280;2862;52.560;13.566;2023-01-27T21:28:31;101854.66;;;0.39;88.25
5679;BME280;2862;52.560;13.566;2023-01-27T21:38:34;101854.13;;;0.24;89.22
5679;BME280;2862;52.560;13.566;2023-01-27T21:48:39;101855.03;;;0.22;89.42
5679;BME280;2862;52.560;13.566;2023-01-27T21:58:42;101852.41;;;0.22;89.41
5679;BME280;2862;52.560;13.566;2023-01-27T22:08:49;101862.22;;;0.14;89.76
5679;BME280;2862;52.560;13.566;2023-01-27T22:18:53;101857.94;;;0.10;90.06
5679;BME280;2862;52.560;13.566;2023-01-27T22:28:57;101856.22;;;0.09;90.43
5679;BME280;2862;52.560;13.566;2023-01-27T22:39:00;101852.06;;;-0.03;90.38
5679;BME280;2862;52.560;13.566;2023-01-27T22:49:04;101851.34;;;-0.10;90.75
5679;BME280;2862;52.560;13.566;2023-01-27T22:59:10;101850.69;;;-0.21;90.43
5679;BME280;2862;52.560;13.566;2023-01-27T23:09:15;101849.03;;;-0.25;89.71
5679;BME280;2862;52.560;13.566;2023-01-27T23:19:17;101834.97;;;-0.24;89.81
5679;BME280;2862;52.560;13.566;2023-01-27T23:29:23;101830.66;;;-0.27;89.66
5679;BME280;2862;52.560;13.566;2023-01-27T23:39:28;101823.03;;;-0.40;89.97
5679;BME280;2862;52.560;13.566;2023-01-27T23:49:33;101829.19;;;-0.41;90.23
5679;BME280;2862;52.560;13.566;2023-01-27T23:59:37;101823.13;;;-0.43;90.45
